Skip to main content Skip to accessibility
This website is not compatible with your web browser. You should install a newer browser. If you live in Jersey and need help upgrading call the States of Jersey web team on 440099.
Homegov.je

L'înformâtion et les sèrvices publyis pouor I'Île dé Jèrri

  • Choose the service you want to log in to:

  • gov.je

    Update your notification preferences

  • one.gov.je

    Access government and parish services

  • CAESAR

    Clear goods through customs or claim relief

  • Talentlink

    View or update your States of Jersey job application

CI Airfield TAFs

JERSEY - EGJJ

EGJJ 181400Z 1815/1824 17023KT 9999 -RA FEW005 SCT010 TEMPO 1815/1819 17028G40KT 7000 RA BKN010 PROB40 TEMPO 1816/1819 3000 +RA BKN005 BECMG 1817/1819 27018KT PROB40 TEMPO 1821/1824 8000 SHRA BKN018CB=

GUERNSEY - EGJB

EGJB 181400Z 1815/1824 17025KT 9999 -RA FEW005 SCT010 TEMPO 1815/1818 17032G44KT 7000 RA BKN010 PROB40 TEMPO 1815/1818 3000 +RA BKN005 BECMG 1816/1818 27018KT PROB40 TEMPO 1821/1824 8000 SHRA BKN018CB=

ALDERNEY - EGJA

EGJA 181400Z 1815/1819 17028KT 9999 -RA FEW005 SCT010 TEMPO 1815/1819 17034G46KT 7000 RA BKN010 PROB40 TEMPO 1816/1819 3000 +RA BKN005 BECMG 1817/1819 27018KT=

Back to top
rating button